createdAt,value
2019-04-07T00:02:29.169Z,36.50
2019-04-07T00:05:11.901Z,37.88
2019-04-07T00:10:35.585Z,41.73
2019-04-07T00:13:15.270Z,34.60
2019-04-07T00:15:55.698Z,38.50
2019-04-07T00:18:35.741Z,39.23
2019-04-07T00:21:15.627Z,38.00
2019-04-07T00:23:55.570Z,44.18
2019-04-07T00:26:36.017Z,35.35
2019-04-07T00:29:15.600Z,37.00
2019-04-07T00:31:55.761Z,38.13
2019-04-07T00:34:35.884Z,36.55
2019-04-07T00:37:15.719Z,35.28
2019-04-07T00:39:55.438Z,37.05
2019-04-07T00:42:35.411Z,41.63
2019-04-07T00:45:16.342Z,40.67
2019-04-07T00:47:56.805Z,38.08
2019-04-07T00:50:36.482Z,38.47
2019-04-07T00:53:16.576Z,38.15
2019-04-07T00:55:57.686Z,37.95
2019-04-07T00:58:37.921Z,39.70
2019-04-07T01:01:18.576Z,39.20
2019-04-07T01:03:58.422Z,43.73
2019-04-07T01:06:38.571Z,39.30
2019-04-07T01:09:18.765Z,40.65
2019-04-07T01:11:59.512Z,43.00
2019-04-07T01:14:39.083Z,39.90
2019-04-07T01:17:19.180Z,38.70
2019-04-07T01:19:59.711Z,40.60
2019-04-07T01:22:39.765Z,37.80
2019-04-07T01:25:19.298Z,36.68
2019-04-07T01:27:59.327Z,40.23
2019-04-07T01:30:39.187Z,38.55
2019-04-07T01:33:19.564Z,38.63
2019-04-07T01:35:59.836Z,40.17
2019-04-07T01:38:39.464Z,39.30
2019-04-07T01:44:36.031Z,41.20
2019-04-07T01:47:21.057Z,37.42
2019-04-07T01:50:22.111Z,38.25
2019-04-07T01:53:21.327Z,40.55
2019-04-07T01:56:09.984Z,37.85
2019-04-07T01:59:11.247Z,40.58
2019-04-07T02:02:07.130Z,43.02
2019-04-07T02:04:58.190Z,40.07
2019-04-07T02:07:45.902Z,36.53
2019-04-07T02:10:45.069Z,36.40
2019-04-07T02:13:44.161Z,37.27
2019-04-07T02:16:46.469Z,40.10
2019-04-07T02:19:39.528Z,40.13
2019-04-07T02:22:39.802Z,36.67
2019-04-07T02:25:41.596Z,42.62
2019-04-07T02:28:40.825Z,41.70
2019-04-07T02:31:42.266Z,42.50
2019-04-07T02:34:28.011Z,41.27
2019-04-07T02:37:27.893Z,43.50
2019-04-07T02:40:34.197Z,39.83
2019-04-07T02:43:24.544Z,38.43
2019-04-07T02:46:26.917Z,40.73
2019-04-07T02:49:20.407Z,38.53
2019-04-07T02:52:20.168Z,40.13
2019-04-07T02:55:20.514Z,37.83
2019-04-07T02:58:07.708Z,44.70
2019-04-07T03:01:09.598Z,40.20
2019-04-07T03:04:05.432Z,38.70
2019-04-07T03:07:04.972Z,42.00
2019-04-07T03:09:50.517Z,40.40
2019-04-07T03:12:50.000Z,43.80
2019-04-07T03:15:34.807Z,42.53
2019-04-07T03:21:38.319Z,41.70
2019-04-07T03:24:37.765Z,42.70
2019-04-07T03:27:38.480Z,42.77
2019-04-07T03:30:40.013Z,38.20
2019-04-07T03:33:37.959Z,42.33
2019-04-07T03:36:25.737Z,36.60
2019-04-07T03:39:15.429Z,39.50
2019-04-07T03:42:06.231Z,40.57
2019-04-07T03:47:56.029Z,37.27
2019-04-07T03:50:43.019Z,41.70
2019-04-07T03:53:41.052Z,39.53
2019-04-07T03:56:42.028Z,40.38
2019-04-07T04:02:44.594Z,40.55
2019-04-07T04:05:36.294Z,40.97
2019-04-07T04:08:41.750Z,40.35
2019-04-07T04:11:42.626Z,38.40
2019-04-07T04:14:34.711Z,40.58
2019-04-07T04:17:16.452Z,36.50
2019-04-07T04:19:55.945Z,39.50
2019-04-07T04:22:36.009Z,34.70
2019-04-07T04:25:16.955Z,35.77
2019-04-07T04:27:57.037Z,37.30
2019-04-07T04:30:34.824Z,37.08
2019-04-07T04:33:21.395Z,36.42
2019-04-07T04:36:02.570Z,37.10
2019-04-07T04:38:42.513Z,38.67
2019-04-07T04:41:21.814Z,39.05
2019-04-07T04:44:02.232Z,36.25
2019-04-07T04:46:42.677Z,36.83
2019-04-07T04:49:23.273Z,37.40
2019-04-07T04:52:03.520Z,37.10
2019-04-07T04:54:43.401Z,35.10
2019-04-07T04:57:23.670Z,36.00
2019-04-07T05:00:03.950Z,36.57
2019-04-07T05:02:44.517Z,38.45
2019-04-07T05:05:24.452Z,33.90
2019-04-07T05:08:05.495Z,35.07
2019-04-07T05:10:45.698Z,34.53
2019-04-07T05:13:26.012Z,38.40
2019-04-07T05:16:05.699Z,33.13
2019-04-07T05:18:46.508Z,33.60
2019-04-07T05:21:25.052Z,31.43
2019-04-07T05:24:04.739Z,34.67
2019-04-07T05:26:44.611Z,35.33
2019-04-07T05:29:24.758Z,31.63
2019-04-07T05:32:04.769Z,30.13
2019-04-07T05:34:45.552Z,30.37
2019-04-07T05:37:25.335Z,31.83
2019-04-07T05:40:05.779Z,32.33
2019-04-07T05:42:46.584Z,35.40
2019-04-07T05:45:26.058Z,33.53
2019-04-07T05:48:06.449Z,30.83
2019-04-07T05:50:46.140Z,31.53
2019-04-07T05:53:26.604Z,29.23
2019-04-07T05:56:06.174Z,31.30
2019-04-07T05:58:46.219Z,30.33
2019-04-07T06:01:26.759Z,31.43
2019-04-07T06:04:06.682Z,27.83
2019-04-07T06:06:51.221Z,29.07
2019-04-07T06:09:29.539Z,30.52
2019-04-07T06:12:09.926Z,31.37
2019-04-07T06:14:50.882Z,29.07
2019-04-07T06:17:31.418Z,32.43
2019-04-07T06:20:14.113Z,30.70
2019-04-07T06:22:53.604Z,27.77
2019-04-07T06:25:38.136Z,27.60
2019-04-07T06:28:18.102Z,29.80
2019-04-07T06:30:59.431Z,30.30
2019-04-07T06:33:39.230Z,29.23
2019-04-07T06:36:20.268Z,29.70
2019-04-07T06:39:00.303Z,25.70
2019-04-07T06:41:40.238Z,27.53
2019-04-07T06:44:22.436Z,28.17
2019-04-07T06:47:30.793Z,25.10
2019-04-07T06:50:31.175Z,25.90
2019-04-07T06:53:19.647Z,28.23
2019-04-07T06:56:20.752Z,26.27
2019-04-07T06:59:19.956Z,25.33
2019-04-07T07:02:13.231Z,27.37
2019-04-07T07:05:14.408Z,24.27
2019-04-07T07:08:13.735Z,29.00
2019-04-07T07:11:03.060Z,26.73
2019-04-07T07:14:04.199Z,24.95
2019-04-07T07:16:51.503Z,26.12
2019-04-07T07:19:56.648Z,27.42
2019-04-07T07:22:45.968Z,26.95
2019-04-07T07:25:24.180Z,25.40
2019-04-07T07:28:04.476Z,24.87
2019-04-07T07:30:45.306Z,24.32
2019-04-07T07:33:25.355Z,23.77
2019-04-07T07:36:05.460Z,22.75
2019-04-07T07:38:57.490Z,24.45
2019-04-07T07:41:28.089Z,24.35
2019-04-07T07:44:09.500Z,22.93
2019-04-07T07:46:50.585Z,23.57
2019-04-07T07:49:34.749Z,25.90
2019-04-07T07:52:17.117Z,26.10
2019-04-07T07:54:55.258Z,24.75
2019-04-07T07:57:35.555Z,24.10
2019-04-07T08:00:15.641Z,22.42
2019-04-07T08:02:55.783Z,21.97
2019-04-07T08:05:35.219Z,24.23
2019-04-07T08:08:16.377Z,23.20
2019-04-07T08:11:00.385Z,24.18
2019-04-07T08:13:43.416Z,22.35
2019-04-07T08:16:20.685Z,20.55
2019-04-07T08:19:01.493Z,22.32
2019-04-07T08:21:43.363Z,20.52
2019-04-07T08:24:23.012Z,20.40
2019-04-07T08:27:05.217Z,20.10
2019-04-07T08:29:48.716Z,21.33
2019-04-07T08:32:31.833Z,19.60
2019-04-07T08:35:11.104Z,21.33
2019-04-07T08:37:51.095Z,24.17
2019-04-07T08:40:31.495Z,19.23
2019-04-07T08:43:11.488Z,24.23
2019-04-07T08:45:51.503Z,19.93
2019-04-07T08:48:32.207Z,22.43
2019-04-07T08:51:16.224Z,26.53
2019-04-07T08:53:55.971Z,26.67
2019-04-07T08:56:35.569Z,19.10
2019-04-07T08:59:17.030Z,19.47
2019-04-07T09:01:56.975Z,20.87
2019-04-07T09:04:37.007Z,25.67
2019-04-07T09:07:17.538Z,22.77
2019-04-07T09:09:57.813Z,22.80
2019-04-07T09:12:37.233Z,18.53
2019-04-07T09:18:29.423Z,24.10
2019-04-07T09:24:31.409Z,23.13
2019-04-07T09:30:42.260Z,21.53
2019-04-07T09:33:40.188Z,23.97
2019-04-07T09:36:32.611Z,23.03
2019-04-07T09:39:22.471Z,23.23
2019-04-07T09:42:29.164Z,22.47
2019-04-07T09:48:33.477Z,23.67
2019-04-07T09:51:28.151Z,22.97
2019-04-07T09:54:21.413Z,21.27
2019-04-07T09:57:19.044Z,22.67
2019-04-07T10:00:25.159Z,23.27
2019-04-07T10:03:25.155Z,19.87
2019-04-07T10:06:12.652Z,21.57
2019-04-07T10:12:15.931Z,19.57
2019-04-07T10:15:22.334Z,18.97
2019-04-07T10:18:19.184Z,21.63
2019-04-07T10:21:09.998Z,19.87
2019-04-07T10:24:01.724Z,21.70
2019-04-07T10:26:56.293Z,23.10
2019-04-07T10:29:52.460Z,21.37
2019-04-07T10:32:56.250Z,16.87
2019-04-07T10:35:58.704Z,20.27
2019-04-07T10:38:55.309Z,22.13
2019-04-07T10:41:55.777Z,22.10
2019-04-07T10:44:55.642Z,22.67
2019-04-07T10:47:41.583Z,18.20
2019-04-07T10:50:33.675Z,20.37
2019-04-07T10:53:17.080Z,17.00
2019-04-07T10:56:19.938Z,21.77
2019-04-07T10:59:23.240Z,17.63
2019-04-07T11:05:24.540Z,24.23
2019-04-07T11:08:18.465Z,18.63
2019-04-07T11:11:19.164Z,19.10
2019-04-07T11:17:08.088Z,21.13
2019-04-07T11:19:58.169Z,20.00
2019-04-07T11:22:41.395Z,21.37
2019-04-07T11:25:32.209Z,20.03
2019-04-07T11:28:22.582Z,20.63
2019-04-07T11:31:23.743Z,19.67
2019-04-07T11:34:23.737Z,16.40
2019-04-07T11:37:24.528Z,19.30
2019-04-07T11:40:11.709Z,18.50
2019-04-07T11:43:15.307Z,17.10
2019-04-07T11:46:03.059Z,17.70
2019-04-07T11:49:02.387Z,20.73
2019-04-07T11:51:47.863Z,17.90
2019-04-07T11:54:33.924Z,17.47
2019-04-07T11:57:29.055Z,18.23
2019-04-07T12:03:17.179Z,18.40
2019-04-07T12:09:02.216Z,17.87
2019-04-07T12:11:58.232Z,18.53
2019-04-07T12:14:59.145Z,18.17
2019-04-07T12:17:49.191Z,20.00
2019-04-07T12:20:53.446Z,20.90
2019-04-07T12:23:54.241Z,21.63
2019-04-07T12:26:53.828Z,18.33
2019-04-07T12:30:00.135Z,20.00
2019-04-07T12:33:08.455Z,20.63
2019-04-07T12:36:11.795Z,20.57
2019-04-07T12:42:07.164Z,17.80
2019-04-07T12:45:14.444Z,17.07
2019-04-07T12:47:59.382Z,18.33
2019-04-07T12:50:48.890Z,15.40
2019-04-07T12:53:50.105Z,17.43
2019-04-07T12:59:55.209Z,17.77
2019-04-07T13:02:53.234Z,19.77
2019-04-07T13:05:39.205Z,22.83
2019-04-07T13:08:41.765Z,16.40
2019-04-07T13:11:45.679Z,20.27
2019-04-07T13:14:43.913Z,19.07
2019-04-07T13:17:44.371Z,19.43
2019-04-07T13:23:36.966Z,19.00
2019-04-07T13:26:37.418Z,18.13
2019-04-07T13:29:40.058Z,15.20
2019-04-07T13:35:42.148Z,17.40
2019-04-07T13:38:35.472Z,16.77
2019-04-07T13:44:21.738Z,16.90
2019-04-07T13:47:20.850Z,16.93
2019-04-07T13:50:20.222Z,15.43
2019-04-07T13:56:17.631Z,21.27
2019-04-07T14:02:30.210Z,20.67
2019-04-07T14:05:07.562Z,23.57
2019-04-07T14:07:53.931Z,21.77
2019-04-07T14:10:42.894Z,20.70
2019-04-07T14:13:44.708Z,26.43
2019-04-07T14:19:55.153Z,23.80
2019-04-07T14:22:42.882Z,23.10
2019-04-07T14:25:46.393Z,22.90
2019-04-07T14:31:34.718Z,24.33
2019-04-07T14:34:24.380Z,25.67
2019-04-07T14:37:25.349Z,24.03
2019-04-07T14:40:30.975Z,21.40
2019-04-07T14:43:26.326Z,26.57
2019-04-07T14:49:30.933Z,23.00
2019-04-07T14:52:17.651Z,24.63
2019-04-07T14:58:02.260Z,21.87
2019-04-07T15:01:04.733Z,25.10
2019-04-07T15:03:42.836Z,23.93
2019-04-07T15:06:23.886Z,28.17
2019-04-07T15:09:11.090Z,25.43
2019-04-07T15:12:01.568Z,26.83
2019-04-07T15:14:42.693Z,23.87
2019-04-07T15:17:23.125Z,27.03
2019-04-07T15:22:48.493Z,22.57
2019-04-07T15:25:29.719Z,21.83
2019-04-07T15:28:09.265Z,23.23
2019-04-07T15:30:50.167Z,21.43
2019-04-07T15:33:38.778Z,24.20
2019-04-07T15:36:19.557Z,31.37
2019-04-07T15:38:59.926Z,24.43
2019-04-07T15:41:42.493Z,24.57
2019-04-07T15:44:22.777Z,28.07
2019-04-07T15:47:02.952Z,27.37
2019-04-07T15:49:42.591Z,25.57
2019-04-07T15:52:22.891Z,24.87
2019-04-07T15:55:03.452Z,24.97
2019-04-07T15:57:43.942Z,23.83
2019-04-07T16:00:23.767Z,25.50
2019-04-07T16:03:04.315Z,25.97
2019-04-07T16:05:46.090Z,23.53
2019-04-07T16:08:28.817Z,24.73
2019-04-07T16:11:08.171Z,23.33
2019-04-07T16:13:48.249Z,25.70
2019-04-07T16:16:29.452Z,22.97
2019-04-07T16:19:15.581Z,26.37
2019-04-07T16:21:52.257Z,26.70
2019-04-07T16:24:32.722Z,25.63
2019-04-07T16:27:12.088Z,27.80
2019-04-07T16:29:56.906Z,25.53
2019-04-07T16:32:37.578Z,27.37
2019-04-07T16:35:18.333Z,24.87
2019-04-07T16:38:00.050Z,25.80
2019-04-07T16:40:42.098Z,25.27
2019-04-07T16:43:22.605Z,30.77
2019-04-07T16:46:02.501Z,28.93
2019-04-07T16:48:43.114Z,25.37
2019-04-07T16:51:26.439Z,25.40
2019-04-07T16:54:08.045Z,32.37
2019-04-07T16:56:50.477Z,29.93
2019-04-07T17:02:14.450Z,26.57
2019-04-07T17:04:54.700Z,30.23
2019-04-07T17:07:34.874Z,27.50
2019-04-07T17:10:14.993Z,30.33
2019-04-07T17:15:57.798Z,27.80
2019-04-07T17:18:37.079Z,31.43
2019-04-07T17:21:18.357Z,32.40
2019-04-07T17:23:59.171Z,30.37
2019-04-07T17:26:39.342Z,26.80
2019-04-07T17:29:21.413Z,30.93
2019-04-07T17:32:02.399Z,27.03
2019-04-07T17:34:43.597Z,29.43
2019-04-07T17:37:28.046Z,28.40
2019-04-07T17:40:14.362Z,28.83
2019-04-07T17:42:56.723Z,29.77
2019-04-07T17:49:18.158Z,27.77
2019-04-07T17:52:16.028Z,23.33
2019-04-07T17:55:15.331Z,23.93
2019-04-07T18:01:15.815Z,26.80
2019-04-07T18:07:29.966Z,22.73
2019-04-07T18:13:21.722Z,25.02
2019-04-07T18:16:15.999Z,26.82
2019-04-07T18:22:10.648Z,27.63
2019-04-07T18:24:59.589Z,23.83
2019-04-07T18:27:58.837Z,24.47
2019-04-07T18:30:54.728Z,22.73
2019-04-07T18:33:51.630Z,22.40
2019-04-07T18:40:02.421Z,21.80
2019-04-07T18:43:05.134Z,21.73
2019-04-07T18:46:05.996Z,22.32
2019-04-07T18:49:06.076Z,24.40
2019-04-07T18:52:05.718Z,23.38
2019-04-07T18:54:47.593Z,21.55
2019-04-07T18:57:42.610Z,22.83
2019-04-07T19:03:53.788Z,23.38
2019-04-07T19:06:56.185Z,21.35
2019-04-07T19:09:43.986Z,20.88
2019-04-07T19:12:43.593Z,23.45
2019-04-07T19:18:47.340Z,21.80
2019-04-07T19:21:38.782Z,23.77
2019-04-07T19:24:38.325Z,21.73
2019-04-07T19:27:38.600Z,24.30
2019-04-07T19:30:38.885Z,24.67
2019-04-07T19:33:24.507Z,21.73
2019-04-07T22:33:46.583Z,30.90
2019-04-07T22:36:27.323Z,34.17
2019-04-07T22:39:07.776Z,33.13
2019-04-07T22:41:48.376Z,34.95
2019-04-07T22:44:28.115Z,33.65
2019-04-07T22:47:09.422Z,35.93
2019-04-07T22:49:49.435Z,33.33
2019-04-07T22:52:30.063Z,36.25
2019-04-07T22:55:09.804Z,33.83
2019-04-07T22:57:49.765Z,32.03
2019-04-07T23:00:29.021Z,32.30
2019-04-07T23:03:09.919Z,31.73
2019-04-07T23:05:50.153Z,31.33
2019-04-07T23:08:30.367Z,32.25
2019-04-07T23:11:10.411Z,31.37
2019-04-07T23:13:51.306Z,28.77
2019-04-07T23:16:31.662Z,30.17
2019-04-07T23:19:11.713Z,29.82
2019-04-07T23:21:51.713Z,29.25
2019-04-07T23:24:31.713Z,26.45
2019-04-07T23:27:12.434Z,29.18
2019-04-07T23:29:52.849Z,25.52
2019-04-07T23:32:33.014Z,21.97
2019-04-07T23:35:13.146Z,21.85
2019-04-07T23:37:53.250Z,24.00
2019-04-07T23:40:34.289Z,62.58
2019-04-07T23:43:15.216Z,40.83
2019-04-07T23:45:55.944Z,29.27
2019-04-07T23:48:35.427Z,22.75
2019-04-07T23:51:16.405Z,24.00
2019-04-07T23:53:56.409Z,25.00
2019-04-07T23:56:36.332Z,26.80
2019-04-07T23:59:16.799Z,27.40
